createdAt,value
2018-07-10T00:02:11.298Z,18.21
2018-07-10T00:04:51.672Z,18.12
2018-07-10T00:07:47.989Z,18.11
2018-07-10T00:10:58.091Z,18.18
2018-07-10T00:13:27.180Z,18.21
2018-07-10T00:15:56.222Z,18.16
2018-07-10T00:18:25.325Z,18.19
2018-07-10T00:20:55.248Z,18.14
2018-07-10T00:23:24.366Z,18.05
2018-07-10T00:25:53.461Z,17.89
2018-07-10T00:28:22.573Z,17.78
2018-07-10T00:30:51.663Z,17.77
2018-07-10T00:33:20.923Z,17.71
2018-07-10T00:35:50.016Z,17.74
2018-07-10T00:38:30.456Z,17.63
2018-07-10T00:40:59.553Z,17.57
2018-07-10T00:43:28.613Z,17.50
2018-07-10T00:45:57.743Z,17.53
2018-07-10T00:48:27.810Z,17.66
2018-07-10T00:50:58.445Z,17.53
2018-07-10T00:53:27.546Z,17.46
2018-07-10T00:55:56.787Z,17.37
2018-07-10T00:58:25.925Z,17.19
2018-07-10T01:00:54.988Z,17.21
2018-07-10T01:03:24.053Z,17.20
2018-07-10T01:05:53.183Z,17.28
2018-07-10T01:08:22.253Z,17.31
2018-07-10T01:10:57.650Z,17.34
2018-07-10T01:13:26.743Z,17.19
2018-07-10T01:15:55.868Z,17.11
2018-07-10T01:18:26.954Z,16.99
2018-07-10T01:20:56.282Z,16.88
2018-07-10T01:23:29.354Z,16.85
2018-07-10T01:26:00.122Z,16.88
2018-07-10T01:28:30.006Z,16.83
2018-07-10T01:30:59.109Z,16.69
2018-07-10T01:33:28.255Z,16.51
2018-07-10T01:35:57.580Z,16.39
2018-07-10T01:38:26.721Z,16.24
2018-07-10T01:40:55.847Z,16.16
2018-07-10T01:43:25.000Z,16.09
2018-07-10T01:45:54.119Z,15.99
2018-07-10T01:48:23.200Z,15.95
2018-07-10T01:50:53.026Z,15.92
2018-07-10T01:53:22.370Z,15.97
2018-07-10T01:55:51.525Z,16.02
2018-07-10T01:58:21.298Z,15.98
2018-07-10T02:00:50.503Z,15.99
2018-07-10T02:03:19.550Z,15.91
2018-07-10T02:05:48.673Z,16.01
2018-07-10T02:08:17.800Z,16.06
2018-07-10T02:10:46.900Z,16.20
2018-07-10T02:13:16.040Z,16.21
2018-07-10T02:15:45.241Z,16.26
2018-07-10T02:18:14.352Z,16.29
2018-07-10T02:21:00.779Z,16.29
2018-07-10T02:23:36.221Z,16.36
2018-07-10T02:26:07.347Z,16.27
2018-07-10T02:28:36.464Z,16.18
2018-07-10T02:31:05.563Z,16.09
2018-07-10T02:33:34.636Z,15.97
2018-07-10T02:36:03.947Z,15.89
2018-07-10T02:38:34.161Z,15.87
2018-07-10T02:41:03.301Z,15.91
2018-07-10T02:43:32.438Z,15.97
2018-07-10T02:46:02.103Z,15.99
2018-07-10T02:48:32.467Z,16.04
2018-07-10T02:51:03.853Z,16.05
2018-07-10T02:53:33.624Z,16.11
2018-07-10T02:56:02.754Z,16.15
2018-07-10T02:58:34.412Z,16.23
2018-07-10T03:01:04.447Z,16.18
2018-07-10T03:03:36.154Z,16.10
2018-07-10T03:06:05.928Z,16.08
2018-07-10T03:08:35.356Z,16.04
2018-07-10T03:11:04.610Z,16.04
2018-07-10T03:13:33.873Z,16.01
2018-07-10T03:16:03.026Z,16.00
2018-07-10T03:18:32.574Z,15.99
2018-07-10T03:21:01.684Z,16.00
2018-07-10T03:23:30.766Z,16.01
2018-07-10T03:25:59.860Z,16.03
2018-07-10T03:28:28.970Z,15.92
2018-07-10T03:31:13.240Z,15.84
2018-07-10T03:33:45.450Z,15.88
2018-07-10T03:36:14.555Z,15.92
2018-07-10T03:38:43.648Z,15.85
2018-07-10T03:41:13.108Z,15.93
2018-07-10T03:43:43.192Z,15.87
2018-07-10T03:46:12.250Z,15.91
2018-07-10T03:48:41.419Z,15.94
2018-07-10T03:51:11.618Z,15.99
2018-07-10T03:53:41.289Z,15.96
2018-07-10T03:56:11.097Z,16.01
2018-07-10T03:58:40.344Z,15.98
2018-07-10T04:01:09.447Z,16.01
2018-07-10T04:03:38.550Z,16.01
2018-07-10T04:06:08.054Z,15.96
2018-07-10T04:08:38.463Z,15.94
2018-07-10T04:11:07.611Z,16.02
2018-07-10T04:13:38.142Z,16.03
2018-07-10T04:16:07.296Z,16.07
2018-07-10T04:18:36.570Z,16.11
2018-07-10T04:21:19.938Z,16.15
2018-07-10T04:23:54.834Z,16.24
2018-07-10T04:26:24.153Z,16.21
2018-07-10T04:29:04.480Z,16.26
2018-07-10T04:31:46.412Z,16.22
2018-07-10T04:34:15.880Z,16.23
2018-07-10T04:36:44.987Z,16.18
2018-07-10T04:39:20.720Z,16.25
2018-07-10T04:41:57.769Z,16.29
2018-07-10T04:44:32.144Z,16.23
2018-07-10T04:47:16.498Z,16.20
2018-07-10T04:49:52.212Z,16.20
2018-07-10T04:52:29.655Z,16.24
2018-07-10T04:55:15.248Z,16.27
2018-07-10T04:57:57.646Z,16.31
2018-07-10T05:00:28.095Z,16.38
2018-07-10T05:02:58.967Z,16.45
2018-07-10T05:05:30.780Z,16.36
2018-07-10T05:08:01.639Z,16.36
2018-07-10T05:10:31.613Z,16.31
2018-07-10T05:13:02.717Z,16.33
2018-07-10T05:15:31.908Z,16.36
2018-07-10T05:18:05.984Z,16.28
2018-07-10T05:20:35.789Z,16.25
2018-07-10T05:23:04.993Z,16.22
2018-07-10T05:25:35.990Z,16.23
2018-07-10T05:28:05.165Z,16.25
2018-07-10T05:30:36.068Z,16.17
2018-07-10T05:33:05.558Z,16.14
2018-07-10T05:35:34.696Z,16.15
2018-07-10T05:38:06.493Z,16.20
2018-07-10T05:40:35.832Z,16.19
2018-07-10T05:43:12.000Z,16.26
2018-07-10T05:45:41.428Z,16.21
2018-07-10T05:48:11.056Z,16.26
2018-07-10T05:50:40.399Z,16.42
2018-07-10T05:53:11.313Z,16.55
2018-07-10T05:55:49.134Z,16.70
2018-07-10T05:58:18.240Z,16.89
2018-07-10T06:00:47.325Z,16.96
2018-07-10T06:03:16.409Z,17.03
2018-07-10T06:05:45.549Z,17.18
2018-07-10T06:08:14.925Z,17.06
2018-07-10T06:10:43.995Z,17.10
2018-07-10T06:13:13.118Z,17.07
2018-07-10T06:15:42.245Z,17.10
2018-07-10T06:18:11.336Z,17.18
2018-07-10T06:20:41.872Z,17.31
2018-07-10T06:23:11.050Z,17.29
2018-07-10T06:25:40.762Z,17.17
2018-07-10T06:28:13.896Z,17.21
2018-07-10T06:30:43.162Z,17.24
2018-07-10T06:33:23.900Z,17.26
2018-07-10T06:36:31.917Z,17.35
2018-07-10T06:39:07.188Z,17.33
2018-07-10T06:41:40.268Z,17.36
2018-07-10T06:44:09.410Z,17.36
2018-07-10T06:46:40.635Z,17.25
2018-07-10T06:49:22.013Z,17.29
2018-07-10T06:52:13.714Z,17.33
2018-07-10T06:54:57.516Z,17.46
2018-07-10T06:57:33.188Z,17.63
2018-07-10T07:00:03.337Z,17.67
2018-07-10T07:02:33.771Z,17.67
2018-07-10T07:05:02.869Z,17.59
2018-07-10T07:07:33.623Z,17.66
2018-07-10T07:10:04.469Z,17.78
2018-07-10T07:12:34.359Z,17.77
2018-07-10T07:15:05.123Z,17.77
2018-07-10T07:17:34.878Z,17.73
2018-07-10T07:20:04.057Z,17.76
2018-07-10T07:22:34.111Z,17.60
2018-07-10T07:25:03.966Z,17.52
2018-07-10T07:27:33.430Z,17.46
2018-07-10T07:30:02.691Z,17.66
2018-07-10T07:32:32.269Z,17.73
2018-07-10T07:35:01.349Z,17.84
2018-07-10T07:37:31.273Z,17.79
2018-07-10T07:40:00.393Z,17.89
2018-07-10T07:42:29.479Z,17.84
2018-07-10T07:44:58.710Z,17.73
2018-07-10T07:47:29.606Z,17.65
2018-07-10T07:49:58.774Z,17.58
2018-07-10T07:52:30.395Z,17.51
2018-07-10T07:55:00.998Z,17.67
2018-07-10T07:57:30.102Z,17.79
2018-07-10T07:59:59.255Z,17.81
2018-07-10T08:02:28.415Z,17.87
2018-07-10T08:04:57.905Z,17.80
2018-07-10T08:07:28.194Z,17.91
2018-07-10T08:09:58.212Z,17.97
2018-07-10T08:12:28.587Z,18.07
2018-07-10T08:14:59.934Z,18.20
2018-07-10T08:17:29.628Z,18.19
2018-07-10T08:19:59.718Z,18.17
2018-07-10T08:22:29.099Z,18.24
2018-07-10T08:24:58.273Z,18.28
2018-07-10T08:27:28.095Z,18.26
2018-07-10T08:29:57.699Z,18.23
2018-07-10T08:32:28.365Z,18.26
2018-07-10T08:34:57.627Z,18.40
2018-07-10T08:37:27.016Z,18.57
2018-07-10T08:39:56.186Z,18.70
2018-07-10T08:42:25.432Z,18.60
2018-07-10T08:44:54.793Z,18.51
2018-07-10T08:47:23.918Z,18.51
2018-07-10T08:49:53.041Z,18.43
2018-07-10T08:52:22.158Z,18.34
2018-07-10T08:54:51.269Z,18.52
2018-07-10T08:57:21.124Z,18.49
2018-07-10T08:59:50.377Z,18.36
2018-07-10T09:02:19.476Z,18.30
2018-07-10T09:04:48.570Z,18.19
2018-07-10T09:07:17.777Z,18.16
2018-07-10T09:09:46.879Z,18.16
2018-07-10T09:12:16.006Z,18.01
2018-07-10T09:14:45.176Z,18.10
2018-07-10T09:17:14.586Z,17.95
2018-07-10T09:19:43.711Z,18.04
2018-07-10T09:22:13.624Z,17.87
2018-07-10T09:24:46.839Z,17.85
2018-07-10T09:27:17.640Z,17.77
2018-07-10T09:29:47.321Z,17.81
2018-07-10T09:32:20.627Z,17.82
2018-07-10T09:34:50.174Z,17.79
2018-07-10T09:37:24.540Z,17.81
2018-07-10T09:40:26.921Z,17.75
2018-07-10T09:42:58.760Z,17.92
2018-07-10T09:45:42.722Z,17.93
2018-07-10T09:48:11.833Z,17.65
2018-07-10T09:50:41.126Z,17.72
2018-07-10T09:53:10.292Z,17.80
2018-07-10T09:55:39.372Z,17.86
2018-07-10T09:58:08.488Z,17.85
2018-07-10T10:00:45.808Z,17.87
2018-07-10T10:03:15.023Z,17.95
2018-07-10T10:05:45.500Z,17.84
2018-07-10T10:08:14.579Z,17.96
2018-07-10T10:10:43.776Z,18.10
2018-07-10T10:13:12.905Z,18.21
2018-07-10T10:15:42.108Z,18.23
2018-07-10T10:18:11.272Z,18.24
2018-07-10T10:20:41.465Z,18.23
2018-07-10T10:23:12.409Z,18.13
2018-07-10T10:25:49.529Z,18.12
2018-07-10T10:28:21.440Z,18.06
2018-07-10T10:30:50.563Z,18.01
2018-07-10T10:33:19.636Z,17.93
2018-07-10T10:35:49.061Z,17.77
2018-07-10T10:38:18.851Z,17.71
2018-07-10T10:40:49.800Z,17.67
2018-07-10T10:43:18.911Z,17.67
2018-07-10T10:45:48.314Z,17.91
2018-07-10T10:48:18.272Z,17.91
2018-07-10T10:50:50.382Z,17.86
2018-07-10T10:53:20.059Z,17.80
2018-07-10T10:55:49.382Z,17.86
2018-07-10T10:58:20.072Z,17.90
2018-07-10T11:00:49.331Z,17.92
2018-07-10T11:03:18.424Z,17.87
2018-07-10T11:05:47.824Z,17.93
2018-07-10T11:08:16.978Z,17.82
2018-07-10T11:10:47.139Z,17.80
2018-07-10T11:13:17.312Z,17.88
2018-07-10T11:15:49.419Z,17.91
2018-07-10T11:18:37.334Z,18.04
2018-07-10T11:21:14.656Z,18.09
2018-07-10T11:23:49.721Z,18.29
2018-07-10T11:26:50.576Z,18.38
2018-07-10T11:29:19.726Z,18.36
2018-07-10T11:31:48.898Z,18.46
2018-07-10T11:34:17.968Z,18.46
2018-07-10T11:36:47.173Z,18.56
2018-07-10T11:39:16.459Z,18.46
2018-07-10T11:41:51.429Z,18.50
2018-07-10T11:44:20.568Z,18.44
2018-07-10T11:46:50.118Z,18.35
2018-07-10T11:49:19.273Z,18.30
2018-07-10T11:51:48.444Z,18.40
2018-07-10T11:54:18.062Z,18.36
2018-07-10T11:56:47.173Z,18.46
2018-07-10T11:59:16.378Z,18.41
2018-07-10T12:01:45.656Z,18.38
2018-07-10T12:04:14.815Z,18.31
2018-07-10T12:06:49.018Z,18.24
2018-07-10T12:09:18.313Z,17.91
2018-07-10T12:11:47.430Z,17.67
2018-07-10T12:14:16.564Z,17.62
2018-07-10T12:16:46.606Z,17.53
2018-07-10T12:19:16.705Z,17.53
2018-07-10T12:21:45.966Z,17.50
2018-07-10T12:24:15.380Z,17.44
2018-07-10T12:26:44.512Z,17.26
2018-07-10T12:29:13.649Z,17.10
2018-07-10T12:31:42.756Z,17.00
2018-07-10T12:34:11.884Z,16.95
2018-07-10T12:36:41.000Z,17.08
2018-07-10T12:39:10.076Z,17.18
2018-07-10T12:41:39.264Z,17.27
2018-07-10T12:44:08.332Z,17.34
2018-07-10T12:46:37.421Z,17.43
2018-07-10T12:49:06.565Z,17.54
2018-07-10T12:51:35.695Z,17.75
2018-07-10T12:54:05.017Z,17.97
2018-07-10T12:56:34.162Z,18.17
2018-07-10T12:59:03.322Z,18.58
2018-07-10T13:01:32.504Z,19.16
2018-07-10T13:04:01.636Z,19.67
2018-07-10T13:06:30.742Z,20.26
2018-07-10T13:08:59.853Z,20.29
2018-07-10T13:11:29.003Z,20.12
2018-07-10T13:13:58.131Z,20.35
2018-07-10T13:16:27.264Z,20.30
2018-07-10T13:18:56.418Z,20.30
2018-07-10T13:21:25.679Z,20.68
2018-07-10T13:23:54.848Z,21.17
2018-07-10T13:26:24.062Z,21.28
2018-07-10T13:28:53.445Z,20.86
2018-07-10T13:31:22.613Z,20.78
2018-07-10T13:33:51.712Z,20.70
2018-07-10T13:36:21.013Z,20.10
2018-07-10T13:38:50.106Z,19.90
2018-07-10T13:41:19.291Z,19.78
2018-07-10T13:43:48.901Z,19.96
2018-07-10T13:46:18.111Z,20.06
2018-07-10T13:48:47.311Z,20.43
2018-07-10T13:51:16.480Z,20.75
2018-07-10T13:53:45.602Z,20.73
2018-07-10T13:56:14.749Z,21.12
2018-07-10T13:58:43.889Z,21.12
2018-07-10T14:01:13.076Z,21.19
2018-07-10T14:03:42.224Z,21.45
2018-07-10T14:06:11.324Z,21.76
2018-07-10T14:08:40.466Z,21.82
2018-07-10T14:11:09.572Z,21.81
2018-07-10T14:13:38.693Z,22.25
2018-07-10T14:16:07.767Z,22.01
2018-07-10T14:18:37.002Z,21.37
2018-07-10T14:21:07.915Z,21.38
2018-07-10T14:23:37.460Z,21.56
2018-07-10T14:26:06.615Z,21.04
2018-07-10T14:28:35.699Z,20.72
2018-07-10T14:31:04.996Z,20.40
2018-07-10T14:33:34.091Z,20.34
2018-07-10T14:36:03.241Z,20.23
2018-07-10T14:38:32.371Z,20.24
2018-07-10T14:41:04.536Z,20.17
2018-07-10T14:43:35.840Z,20.33
2018-07-10T14:46:07.978Z,20.38
2018-07-10T14:48:45.793Z,20.51
2018-07-10T14:51:18.081Z,20.40
2018-07-10T14:53:47.353Z,20.54
2018-07-10T14:56:16.928Z,20.63
2018-07-10T14:58:46.296Z,20.65
2018-07-10T15:01:15.399Z,20.57
2018-07-10T15:03:44.530Z,20.43
2018-07-10T15:06:13.612Z,20.40
2018-07-10T15:08:42.810Z,20.62
2018-07-10T15:11:11.900Z,20.75
2018-07-10T15:13:52.288Z,20.68
2018-07-10T15:16:21.363Z,20.42
2018-07-10T15:18:51.230Z,20.31
2018-07-10T15:21:21.609Z,20.16
2018-07-10T15:23:50.737Z,20.03
2018-07-10T15:26:19.865Z,20.17
2018-07-10T15:28:48.950Z,20.30
2018-07-10T15:31:18.163Z,20.35
2018-07-10T15:33:47.405Z,20.40
2018-07-10T15:36:16.532Z,20.18
2018-07-10T15:38:46.421Z,20.02
2018-07-10T15:41:16.430Z,19.89
2018-07-10T15:43:45.777Z,19.65
2018-07-10T15:46:14.889Z,19.31
2018-07-10T15:48:44.057Z,19.08
2018-07-10T15:51:13.555Z,18.76
2018-07-10T15:53:42.711Z,18.61
2018-07-10T15:56:11.847Z,18.72
2018-07-10T15:58:41.131Z,18.82
2018-07-10T16:01:10.306Z,18.88
2018-07-10T16:03:39.395Z,19.06
2018-07-10T16:06:08.968Z,19.22
2018-07-10T16:08:39.044Z,19.33
2018-07-10T16:11:08.480Z,19.63
2018-07-10T16:13:40.300Z,20.02
2018-07-10T16:16:11.108Z,20.21
2018-07-10T16:18:44.436Z,20.15
2018-07-10T16:21:13.717Z,20.28
2018-07-10T16:23:42.852Z,20.24
2018-07-10T16:26:17.187Z,19.94
2018-07-10T16:28:46.329Z,19.88
2018-07-10T16:31:17.656Z,19.82
2018-07-10T16:33:47.506Z,19.69
2018-07-10T16:36:17.699Z,19.67
2018-07-10T16:38:46.835Z,19.56
2018-07-10T16:41:22.743Z,19.43
2018-07-10T16:43:52.850Z,19.24
2018-07-10T16:46:23.380Z,19.13
2018-07-10T16:49:03.266Z,19.16
2018-07-10T16:51:48.964Z,18.99
2018-07-10T16:54:18.563Z,19.09
2018-07-10T16:56:47.679Z,19.32
2018-07-10T16:59:16.806Z,19.42
2018-07-10T17:01:45.986Z,19.54
2018-07-10T17:04:15.565Z,19.70
2018-07-10T17:06:45.409Z,19.67
2018-07-10T17:09:14.533Z,19.66
2018-07-10T17:11:43.672Z,19.65
2018-07-10T17:14:12.886Z,19.72
2018-07-10T17:16:42.215Z,19.76
2018-07-10T17:19:11.410Z,19.98
2018-07-10T17:21:40.807Z,19.99
2018-07-10T17:24:10.216Z,20.08
2018-07-10T17:26:40.098Z,20.05
2018-07-10T17:29:11.647Z,20.04
2018-07-10T17:31:40.956Z,19.91
2018-07-10T17:34:12.726Z,20.01
2018-07-10T17:36:42.022Z,19.96
2018-07-10T17:39:11.640Z,19.93
2018-07-10T17:41:41.641Z,20.00
2018-07-10T17:44:11.445Z,20.10
2018-07-10T17:46:40.803Z,20.14
2018-07-10T17:49:10.356Z,20.22
2018-07-10T17:51:39.537Z,20.17
2018-07-10T17:54:09.355Z,20.16
2018-07-10T17:56:38.515Z,20.23
2018-07-10T17:59:08.232Z,20.24
2018-07-10T18:01:38.053Z,20.23
2018-07-10T18:04:07.895Z,20.29
2018-07-10T18:06:37.310Z,20.27
2018-07-10T18:09:07.309Z,20.31
2018-07-10T18:11:36.568Z,20.38
2018-07-10T18:14:08.831Z,20.40
2018-07-10T18:16:38.099Z,20.38
2018-07-10T18:19:07.269Z,20.35
2018-07-10T18:21:36.583Z,20.33
2018-07-10T18:24:05.757Z,20.33
2018-07-10T18:26:34.936Z,20.30
2018-07-10T18:29:04.391Z,20.26
2018-07-10T18:31:33.487Z,20.24
2018-07-10T18:34:02.602Z,20.23
2018-07-10T18:36:31.795Z,20.39
2018-07-10T18:39:01.010Z,20.28
2018-07-10T18:41:30.165Z,20.28
2018-07-10T18:43:59.280Z,20.29
2018-07-10T18:46:28.395Z,20.32
2018-07-10T18:48:57.535Z,20.39
2018-07-10T18:51:27.531Z,20.46
2018-07-10T18:53:56.730Z,20.51
2018-07-10T18:56:25.831Z,20.44
2018-07-10T18:59:04.970Z,20.45
2018-07-10T19:02:08.757Z,20.49
2018-07-10T19:04:46.514Z,20.35
2018-07-10T19:07:15.640Z,20.36
2018-07-10T19:09:44.781Z,20.29
2018-07-10T19:12:15.456Z,20.26
2018-07-10T19:14:45.748Z,20.13
2018-07-10T19:17:20.720Z,20.15
2018-07-10T19:19:53.598Z,20.06
2018-07-10T19:22:26.874Z,19.99
2018-07-10T19:24:56.856Z,19.91
2018-07-10T19:27:31.572Z,19.93
2018-07-10T19:30:04.994Z,19.88
2018-07-10T19:32:34.346Z,19.86
2018-07-10T19:35:04.279Z,19.82
2018-07-10T19:37:35.252Z,19.80
2018-07-10T19:40:04.968Z,19.73
2018-07-10T19:42:35.260Z,19.75
2018-07-10T19:45:05.789Z,19.79
2018-07-10T19:47:35.010Z,19.84
2018-07-10T19:50:16.794Z,19.80
2018-07-10T19:52:52.258Z,19.86
2018-07-10T19:55:22.797Z,19.94
2018-07-10T19:58:16.137Z,19.93
2018-07-10T20:00:48.421Z,20.05
2018-07-10T20:03:36.631Z,19.98
2018-07-10T20:06:11.163Z,19.91
2018-07-10T20:08:45.000Z,19.95
2018-07-10T20:11:18.164Z,19.91
2018-07-10T20:13:48.651Z,19.94
2018-07-10T20:16:51.705Z,19.87
2018-07-10T20:19:44.533Z,19.91
2018-07-10T20:23:23.597Z,19.86
2018-07-10T20:26:06.890Z,19.83
2018-07-10T20:28:42.336Z,19.83
2018-07-10T20:31:53.811Z,19.76
2018-07-10T20:34:28.742Z,19.72
2018-07-10T20:36:57.917Z,19.70
2018-07-10T20:39:34.545Z,19.60
2018-07-10T20:42:04.176Z,19.48
2018-07-10T20:44:51.270Z,19.35
2018-07-10T20:47:20.860Z,19.29
2018-07-10T20:49:56.763Z,19.24
2018-07-10T20:52:32.414Z,19.13
2018-07-10T20:55:06.165Z,19.09
2018-07-10T20:58:09.450Z,18.98
2018-07-10T21:00:40.256Z,18.92
2018-07-10T21:03:16.578Z,18.87
2018-07-10T21:05:49.061Z,18.76
2018-07-10T21:08:30.709Z,18.76
2018-07-10T21:11:06.322Z,18.68
2018-07-10T21:13:46.842Z,18.66
2018-07-10T21:16:20.270Z,18.60
2018-07-10T21:19:02.603Z,18.61
2018-07-10T21:21:44.458Z,18.62
2018-07-10T21:24:56.371Z,18.65
2018-07-10T21:27:48.622Z,18.66
2018-07-10T21:30:26.359Z,18.66
2018-07-10T21:32:59.121Z,18.74
2018-07-10T21:35:35.694Z,18.74
2018-07-10T21:38:15.859Z,18.65
2018-07-10T21:40:54.655Z,18.60
2018-07-10T21:43:30.833Z,18.50
2018-07-10T21:46:07.560Z,18.54
2018-07-10T21:50:49.565Z,18.37
2018-07-10T21:53:19.238Z,18.21
2018-07-10T21:55:51.391Z,18.13
2018-07-10T21:58:21.954Z,18.12
2018-07-10T22:02:02.996Z,18.08
2018-07-10T22:04:35.099Z,17.93
2018-07-10T22:07:06.187Z,17.86
2018-07-10T22:09:37.067Z,17.91
2018-07-10T22:12:09.739Z,17.90
2018-07-10T22:14:38.928Z,17.81
2018-07-10T22:17:13.264Z,17.78
2018-07-10T22:19:44.131Z,17.74
2018-07-10T22:22:17.568Z,17.70
2018-07-10T22:24:47.022Z,17.67
2018-07-10T22:27:16.250Z,17.59
2018-07-10T22:29:51.420Z,17.61
2018-07-10T22:32:25.912Z,17.54
2018-07-10T22:34:55.060Z,17.51
2018-07-10T22:37:24.164Z,17.49
2018-07-10T22:39:53.274Z,17.50
2018-07-10T22:42:22.423Z,17.46
2018-07-10T22:44:53.224Z,17.47
2018-07-10T22:47:40.215Z,17.38
2018-07-10T22:50:13.188Z,17.33
2018-07-10T22:52:47.579Z,17.34
2018-07-10T22:55:20.803Z,17.36
2018-07-10T22:57:51.440Z,17.33
2018-07-10T23:00:38.420Z,17.32
2018-07-10T23:03:18.489Z,17.28
2018-07-10T23:05:49.129Z,17.22
2018-07-10T23:08:20.090Z,17.25
2018-07-10T23:10:49.621Z,17.17
2018-07-10T23:13:19.369Z,17.13
2018-07-10T23:15:49.320Z,17.07
2018-07-10T23:18:18.997Z,17.02
2018-07-10T23:20:48.163Z,17.01
2018-07-10T23:23:17.626Z,16.99
2018-07-10T23:25:46.709Z,17.00
2018-07-10T23:28:15.880Z,16.95
2018-07-10T23:30:45.309Z,16.89
2018-07-10T23:33:18.617Z,16.88
2018-07-10T23:35:50.104Z,16.83
2018-07-10T23:38:53.583Z,16.80
2018-07-10T23:41:30.919Z,16.75
2018-07-10T23:44:00.572Z,16.70
2018-07-10T23:46:34.364Z,16.73
2018-07-10T23:49:09.868Z,16.68
2018-07-10T23:51:50.751Z,16.71
2018-07-10T23:54:20.575Z,16.64
2018-07-10T23:56:49.663Z,16.58
2018-07-10T23:59:18.799Z,16.52
